sensor_id;sensor_type;location;lat;lon;timestamp;temperature;humidity
15394;DHT22;7795;47.986;11.868;2022-10-13T00:01:06;12.90;80.70
15394;DHT22;7795;47.986;11.868;2022-10-13T00:03:33;12.90;80.80
15394;DHT22;7795;47.986;11.868;2022-10-13T00:05:58;12.90;80.80
15394;DHT22;7795;47.986;11.868;2022-10-13T00:08:24;12.90;80.80
15394;DHT22;7795;47.986;11.868;2022-10-13T00:10:51;12.90;80.90
15394;DHT22;7795;47.986;11.868;2022-10-13T00:13:19;12.90;81.00
15394;DHT22;7795;47.986;11.868;2022-10-13T00:15:46;12.90;81.10
15394;DHT22;7795;47.986;11.868;2022-10-13T00:18:12;12.90;81.10
15394;DHT22;7795;47.986;11.868;2022-10-13T00:20:41;12.90;81.20
15394;DHT22;7795;47.986;11.868;2022-10-13T00:23:07;12.90;81.30
15394;DHT22;7795;47.986;11.868;2022-10-13T00:25:33;12.90;81.20
15394;DHT22;7795;47.986;11.868;2022-10-13T00:27:59;12.90;81.20
15394;DHT22;7795;47.986;11.868;2022-10-13T00:30:26;12.90;81.30
15394;DHT22;7795;47.986;11.868;2022-10-13T00:32:51;12.90;81.40
15394;DHT22;7795;47.986;11.868;2022-10-13T00:35:17;12.90;81.50
15394;DHT22;7795;47.986;11.868;2022-10-13T00:37:43;12.90;81.70
15394;DHT22;7795;47.986;11.868;2022-10-13T00:40:09;12.90;81.70
15394;DHT22;7795;47.986;11.868;2022-10-13T00:42:35;12.90;81.70
15394;DHT22;7795;47.986;11.868;2022-10-13T00:45:05;12.90;81.70
15394;DHT22;7795;47.986;11.868;2022-10-13T00:47:35;12.90;81.80
15394;DHT22;7795;47.986;11.868;2022-10-13T00:50:05;12.90;81.80
15394;DHT22;7795;47.986;11.868;2022-10-13T00:52:32;12.80;81.70
15394;DHT22;7795;47.986;11.868;2022-10-13T00:54:59;12.80;81.80
15394;DHT22;7795;47.986;11.868;2022-10-13T00:57:27;12.80;81.90
15394;DHT22;7795;47.986;11.868;2022-10-13T00:59:53;12.80;81.80
15394;DHT22;7795;47.986;11.868;2022-10-13T01:02:19;12.80;81.80
15394;DHT22;7795;47.986;11.868;2022-10-13T01:04:47;12.80;81.90
15394;DHT22;7795;47.986;11.868;2022-10-13T01:07:13;12.70;81.80
15394;DHT22;7795;47.986;11.868;2022-10-13T01:09:40;12.70;81.70
15394;DHT22;7795;47.986;11.868;2022-10-13T01:12:13;12.70;81.70
15394;DHT22;7795;47.986;11.868;2022-10-13T01:14:46;12.70;81.80
15394;DHT22;7795;47.986;11.868;2022-10-13T01:17:19;12.70;81.90
15394;DHT22;7795;47.986;11.868;2022-10-13T01:20:09;12.60;82.00
15394;DHT22;7795;47.986;11.868;2022-10-13T01:22:48;12.60;82.10
15394;DHT22;7795;47.986;11.868;2022-10-13T01:25:36;12.60;82.00
15394;DHT22;7795;47.986;11.868;2022-10-13T01:28:28;12.60;82.00
15394;DHT22;7795;47.986;11.868;2022-10-13T01:30:59;12.60;82.10
15394;DHT22;7795;47.986;11.868;2022-10-13T01:33:32;12.60;81.90
15394;DHT22;7795;47.986;11.868;2022-10-13T01:36:05;12.60;82.00
15394;DHT22;7795;47.986;11.868;2022-10-13T01:38:41;12.60;82.00
15394;DHT22;7795;47.986;11.868;2022-10-13T01:41:13;12.50;81.90
15394;DHT22;7795;47.986;11.868;2022-10-13T01:43:45;12.50;82.00
15394;DHT22;7795;47.986;11.868;2022-10-13T01:46:17;12.50;82.00
15394;DHT22;7795;47.986;11.868;2022-10-13T01:48:44;12.50;82.00
15394;DHT22;7795;47.986;11.868;2022-10-13T01:51:13;12.50;82.00
15394;DHT22;7795;47.986;11.868;2022-10-13T01:53:41;12.50;82.20
15394;DHT22;7795;47.986;11.868;2022-10-13T01:56:08;12.50;82.20
15394;DHT22;7795;47.986;11.868;2022-10-13T01:58:35;12.50;82.10
15394;DHT22;7795;47.986;11.868;2022-10-13T02:01:09;12.50;82.10
15394;DHT22;7795;47.986;11.868;2022-10-13T02:03:50;12.40;82.10
15394;DHT22;7795;47.986;11.868;2022-10-13T02:06:21;12.50;82.10
15394;DHT22;7795;47.986;11.868;2022-10-13T02:08:54;12.50;81.90
15394;DHT22;7795;47.986;11.868;2022-10-13T02:11:21;12.40;81.90
15394;DHT22;7795;47.986;11.868;2022-10-13T02:13:53;12.40;82.50
15394;DHT22;7795;47.986;11.868;2022-10-13T02:16:22;12.40;81.80
15394;DHT22;7795;47.986;11.868;2022-10-13T02:18:50;12.40;81.80
15394;DHT22;7795;47.986;11.868;2022-10-13T02:21:17;12.40;81.80
15394;DHT22;7795;47.986;11.868;2022-10-13T02:23:43;12.30;81.70
15394;DHT22;7795;47.986;11.868;2022-10-13T02:26:09;12.30;81.70
15394;DHT22;7795;47.986;11.868;2022-10-13T02:28:36;12.30;81.70
15394;DHT22;7795;47.986;11.868;2022-10-13T02:31:02;12.30;81.70
15394;DHT22;7795;47.986;11.868;2022-10-13T02:33:28;12.30;81.60
15394;DHT22;7795;47.986;11.868;2022-10-13T02:35:55;12.30;81.50
15394;DHT22;7795;47.986;11.868;2022-10-13T02:38:21;12.30;81.50
15394;DHT22;7795;47.986;11.868;2022-10-13T02:40:46;12.20;81.40
15394;DHT22;7795;47.986;11.868;2022-10-13T02:43:12;12.20;81.40
15394;DHT22;7795;47.986;11.868;2022-10-13T02:45:38;12.20;81.40
15394;DHT22;7795;47.986;11.868;2022-10-13T02:48:04;12.20;81.50
15394;DHT22;7795;47.986;11.868;2022-10-13T02:50:30;12.20;81.60
15394;DHT22;7795;47.986;11.868;2022-10-13T02:52:57;12.20;81.70
15394;DHT22;7795;47.986;11.868;2022-10-13T02:55:23;12.20;81.90
15394;DHT22;7795;47.986;11.868;2022-10-13T02:57:49;12.10;82.00
15394;DHT22;7795;47.986;11.868;2022-10-13T03:00:15;12.10;82.00
15394;DHT22;7795;47.986;11.868;2022-10-13T03:02:41;12.10;81.80
15394;DHT22;7795;47.986;11.868;2022-10-13T03:05:08;12.10;81.70
15394;DHT22;7795;47.986;11.868;2022-10-13T03:07:34;12.10;81.70
15394;DHT22;7795;47.986;11.868;2022-10-13T03:10:01;12.00;81.50
15394;DHT22;7795;47.986;11.868;2022-10-13T03:12:26;12.10;81.60
15394;DHT22;7795;47.986;11.868;2022-10-13T03:14:52;12.00;81.50
15394;DHT22;7795;47.986;11.868;2022-10-13T03:17:18;12.00;81.70
15394;DHT22;7795;47.986;11.868;2022-10-13T03:19:44;12.00;81.80
15394;DHT22;7795;47.986;11.868;2022-10-13T03:22:10;12.00;81.90
15394;DHT22;7795;47.986;11.868;2022-10-13T03:24:39;12.00;82.00
15394;DHT22;7795;47.986;11.868;2022-10-13T03:27:06;12.00;82.60
15394;DHT22;7795;47.986;11.868;2022-10-13T03:29:31;12.00;81.70
15394;DHT22;7795;47.986;11.868;2022-10-13T03:31:58;12.00;81.60
15394;DHT22;7795;47.986;11.868;2022-10-13T03:34:24;12.00;81.40
15394;DHT22;7795;47.986;11.868;2022-10-13T03:36:49;12.00;81.40
15394;DHT22;7795;47.986;11.868;2022-10-13T03:39:15;11.90;81.20
15394;DHT22;7795;47.986;11.868;2022-10-13T03:41:41;11.90;81.20
15394;DHT22;7795;47.986;11.868;2022-10-13T03:44:10;11.90;81.20
15394;DHT22;7795;47.986;11.868;2022-10-13T03:46:37;11.90;81.20
15394;DHT22;7795;47.986;11.868;2022-10-13T03:49:02;11.90;81.20
15394;DHT22;7795;47.986;11.868;2022-10-13T03:51:28;11.80;81.20
15394;DHT22;7795;47.986;11.868;2022-10-13T03:53:54;11.80;81.30
15394;DHT22;7795;47.986;11.868;2022-10-13T03:56:22;11.80;82.00
15394;DHT22;7795;47.986;11.868;2022-10-13T03:58:48;11.80;81.40
15394;DHT22;7795;47.986;11.868;2022-10-13T04:01:20;11.80;81.40
15394;DHT22;7795;47.986;11.868;2022-10-13T04:03:46;11.80;81.50
15394;DHT22;7795;47.986;11.868;2022-10-13T04:06:12;11.80;81.50
15394;DHT22;7795;47.986;11.868;2022-10-13T04:08:38;11.70;81.50
15394;DHT22;7795;47.986;11.868;2022-10-13T04:11:05;11.70;81.30
15394;DHT22;7795;47.986;11.868;2022-10-13T04:13:31;11.70;81.20
15394;DHT22;7795;47.986;11.868;2022-10-13T04:16:01;11.70;81.20
15394;DHT22;7795;47.986;11.868;2022-10-13T04:18:28;11.70;81.30
15394;DHT22;7795;47.986;11.868;2022-10-13T04:20:54;11.60;81.20
15394;DHT22;7795;47.986;11.868;2022-10-13T04:23:20;11.60;81.20
15394;DHT22;7795;47.986;11.868;2022-10-13T04:25:45;11.60;81.20
15394;DHT22;7795;47.986;11.868;2022-10-13T04:28:11;11.50;81.20
15394;DHT22;7795;47.986;11.868;2022-10-13T04:30:37;11.50;81.20
15394;DHT22;7795;47.986;11.868;2022-10-13T04:33:03;11.50;81.20
15394;DHT22;7795;47.986;11.868;2022-10-13T04:35:31;11.50;81.20
15394;DHT22;7795;47.986;11.868;2022-10-13T04:37:56;11.40;81.00
15394;DHT22;7795;47.986;11.868;2022-10-13T04:40:22;11.40;81.10
15394;DHT22;7795;47.986;11.868;2022-10-13T04:42:48;11.40;81.10
15394;DHT22;7795;47.986;11.868;2022-10-13T04:45:15;11.40;81.10
15394;DHT22;7795;47.986;11.868;2022-10-13T04:47:40;11.30;81.10
15394;DHT22;7795;47.986;11.868;2022-10-13T04:50:07;11.30;81.10
15394;DHT22;7795;47.986;11.868;2022-10-13T04:52:34;11.30;81.10
15394;DHT22;7795;47.986;11.868;2022-10-13T04:55:00;11.30;81.10
15394;DHT22;7795;47.986;11.868;2022-10-13T04:57:26;11.20;81.20
15394;DHT22;7795;47.986;11.868;2022-10-13T04:59:51;11.20;81.20
15394;DHT22;7795;47.986;11.868;2022-10-13T05:02:17;11.20;81.30
15394;DHT22;7795;47.986;11.868;2022-10-13T05:04:43;11.10;81.30
15394;DHT22;7795;47.986;11.868;2022-10-13T05:07:09;11.10;81.50
15394;DHT22;7795;47.986;11.868;2022-10-13T05:09:36;11.10;82.20
15394;DHT22;7795;47.986;11.868;2022-10-13T05:12:02;11.10;81.60
15394;DHT22;7795;47.986;11.868;2022-10-13T05:14:27;11.10;81.60
15394;DHT22;7795;47.986;11.868;2022-10-13T05:16:55;11.00;81.40
15394;DHT22;7795;47.986;11.868;2022-10-13T05:19:21;11.00;81.40
15394;DHT22;7795;47.986;11.868;2022-10-13T05:21:46;11.00;81.50
15394;DHT22;7795;47.986;11.868;2022-10-13T05:24:12;11.00;81.60
15394;DHT22;7795;47.986;11.868;2022-10-13T05:26:41;11.00;81.70
15394;DHT22;7795;47.986;11.868;2022-10-13T05:29:10;11.00;81.70
15394;DHT22;7795;47.986;11.868;2022-10-13T05:31:36;11.00;81.90
15394;DHT22;7795;47.986;11.868;2022-10-13T05:34:02;11.00;81.90
15394;DHT22;7795;47.986;11.868;2022-10-13T05:36:29;11.00;82.00
15394;DHT22;7795;47.986;11.868;2022-10-13T05:38:57;11.00;82.20
15394;DHT22;7795;47.986;11.868;2022-10-13T05:41:24;11.00;82.30
15394;DHT22;7795;47.986;11.868;2022-10-13T05:43:54;11.10;82.40
15394;DHT22;7795;47.986;11.868;2022-10-13T05:46:21;11.10;82.50
15394;DHT22;7795;47.986;11.868;2022-10-13T05:48:47;11.10;82.50
15394;DHT22;7795;47.986;11.868;2022-10-13T05:51:15;11.10;82.40
15394;DHT22;7795;47.986;11.868;2022-10-13T05:53:44;11.20;82.60
15394;DHT22;7795;47.986;11.868;2022-10-13T05:56:14;11.20;82.70
15394;DHT22;7795;47.986;11.868;2022-10-13T05:58:44;11.20;82.90
15394;DHT22;7795;47.986;11.868;2022-10-13T06:01:16;11.20;82.90
15394;DHT22;7795;47.986;11.868;2022-10-13T06:03:44;11.30;83.00
15394;DHT22;7795;47.986;11.868;2022-10-13T06:06:10;11.30;83.00
15394;DHT22;7795;47.986;11.868;2022-10-13T06:08:36;11.30;83.00
15394;DHT22;7795;47.986;11.868;2022-10-13T06:11:03;11.40;83.20
15394;DHT22;7795;47.986;11.868;2022-10-13T06:13:30;11.40;83.10
15394;DHT22;7795;47.986;11.868;2022-10-13T06:15:55;11.50;83.20
15394;DHT22;7795;47.986;11.868;2022-10-13T06:18:22;11.50;83.20
15394;DHT22;7795;47.986;11.868;2022-10-13T06:20:48;11.60;83.20
15394;DHT22;7795;47.986;11.868;2022-10-13T06:23:14;11.60;83.20
15394;DHT22;7795;47.986;11.868;2022-10-13T06:25:46;11.70;83.30
15394;DHT22;7795;47.986;11.868;2022-10-13T06:28:12;11.70;83.50
15394;DHT22;7795;47.986;11.868;2022-10-13T06:30:37;11.80;83.50
15394;DHT22;7795;47.986;11.868;2022-10-13T06:33:03;11.80;83.40
15394;DHT22;7795;47.986;11.868;2022-10-13T06:35:30;11.90;83.50
15394;DHT22;7795;47.986;11.868;2022-10-13T06:37:56;11.90;83.50
15394;DHT22;7795;47.986;11.868;2022-10-13T06:40:22;12.00;83.50
15394;DHT22;7795;47.986;11.868;2022-10-13T06:42:50;12.00;83.50
15394;DHT22;7795;47.986;11.868;2022-10-13T06:45:16;12.00;83.60
15394;DHT22;7795;47.986;11.868;2022-10-13T06:47:43;12.10;84.30
15394;DHT22;7795;47.986;11.868;2022-10-13T06:50:09;12.10;83.60
15394;DHT22;7795;47.986;11.868;2022-10-13T06:52:37;12.20;83.60
15394;DHT22;7795;47.986;11.868;2022-10-13T06:55:03;12.20;84.40
15394;DHT22;7795;47.986;11.868;2022-10-13T06:57:29;12.20;83.70
15394;DHT22;7795;47.986;11.868;2022-10-13T06:59:55;12.30;83.70
15394;DHT22;7795;47.986;11.868;2022-10-13T07:02:20;12.30;83.70
15394;DHT22;7795;47.986;11.868;2022-10-13T07:04:46;12.40;83.80
15394;DHT22;7795;47.986;11.868;2022-10-13T07:07:13;12.40;83.80
15394;DHT22;7795;47.986;11.868;2022-10-13T07:09:40;12.40;83.80
15394;DHT22;7795;47.986;11.868;2022-10-13T07:12:06;12.50;84.00
15394;DHT22;7795;47.986;11.868;2022-10-13T07:14:32;12.60;84.00
15394;DHT22;7795;47.986;11.868;2022-10-13T07:16:58;12.60;84.00
15394;DHT22;7795;47.986;11.868;2022-10-13T07:19:25;12.70;84.10
15394;DHT22;7795;47.986;11.868;2022-10-13T07:21:51;12.70;84.20
15394;DHT22;7795;47.986;11.868;2022-10-13T07:24:16;12.80;84.30
15394;DHT22;7795;47.986;11.868;2022-10-13T07:26:44;12.80;84.30
15394;DHT22;7795;47.986;11.868;2022-10-13T07:29:09;12.90;84.30
15394;DHT22;7795;47.986;11.868;2022-10-13T07:31:35;13.00;85.10
15394;DHT22;7795;47.986;11.868;2022-10-13T07:34:01;13.00;84.30
15394;DHT22;7795;47.986;11.868;2022-10-13T07:36:29;13.10;84.40
15394;DHT22;7795;47.986;11.868;2022-10-13T07:38:55;13.10;84.30
15394;DHT22;7795;47.986;11.868;2022-10-13T07:41:21;13.20;84.40
15394;DHT22;7795;47.986;11.868;2022-10-13T07:43:48;13.30;84.60
15394;DHT22;7795;47.986;11.868;2022-10-13T07:46:14;13.30;84.60
15394;DHT22;7795;47.986;11.868;2022-10-13T07:48:40;13.40;84.60
15394;DHT22;7795;47.986;11.868;2022-10-13T07:51:08;13.50;84.70
15394;DHT22;7795;47.986;11.868;2022-10-13T07:53:34;13.50;84.70
15394;DHT22;7795;47.986;11.868;2022-10-13T07:56:00;13.60;84.70
15394;DHT22;7795;47.986;11.868;2022-10-13T07:58:26;13.70;84.80
15394;DHT22;7795;47.986;11.868;2022-10-13T08:00:57;13.70;84.80
15394;DHT22;7795;47.986;11.868;2022-10-13T08:03:23;13.80;84.90
15394;DHT22;7795;47.986;11.868;2022-10-13T08:05:49;13.90;84.80
15394;DHT22;7795;47.986;11.868;2022-10-13T08:08:14;13.90;84.80
15394;DHT22;7795;47.986;11.868;2022-10-13T08:10:40;14.00;84.80
15394;DHT22;7795;47.986;11.868;2022-10-13T08:13:06;14.10;84.80
15394;DHT22;7795;47.986;11.868;2022-10-13T08:15:31;14.10;84.80
15394;DHT22;7795;47.986;11.868;2022-10-13T08:17:58;14.20;84.70
15394;DHT22;7795;47.986;11.868;2022-10-13T08:20:24;14.20;84.60
15394;DHT22;7795;47.986;11.868;2022-10-13T08:22:50;14.30;84.60
15394;DHT22;7795;47.986;11.868;2022-10-13T08:25:16;14.40;84.60
15394;DHT22;7795;47.986;11.868;2022-10-13T08:27:42;14.40;84.50
15394;DHT22;7795;47.986;11.868;2022-10-13T08:30:08;14.50;84.50
15394;DHT22;7795;47.986;11.868;2022-10-13T08:32:34;14.60;84.50
15394;DHT22;7795;47.986;11.868;2022-10-13T08:35:01;14.60;84.50
15394;DHT22;7795;47.986;11.868;2022-10-13T08:37:27;14.70;84.60
15394;DHT22;7795;47.986;11.868;2022-10-13T08:39:54;14.80;84.60
15394;DHT22;7795;47.986;11.868;2022-10-13T08:42:21;14.90;84.80
15394;DHT22;7795;47.986;11.868;2022-10-13T08:44:49;14.90;84.80
15394;DHT22;7795;47.986;11.868;2022-10-13T08:47:27;15.00;84.90
15394;DHT22;7795;47.986;11.868;2022-10-13T08:49:56;15.10;85.00
15394;DHT22;7795;47.986;11.868;2022-10-13T08:52:25;15.20;85.50
15394;DHT22;7795;47.986;11.868;2022-10-13T08:54:53;15.30;84.80
15394;DHT22;7795;47.986;11.868;2022-10-13T08:57:19;15.40;84.60
15394;DHT22;7795;47.986;11.868;2022-10-13T08:59:45;15.50;84.50
15394;DHT22;7795;47.986;11.868;2022-10-13T09:02:13;15.60;84.30
15394;DHT22;7795;47.986;11.868;2022-10-13T09:04:43;15.70;84.30
15394;DHT22;7795;47.986;11.868;2022-10-13T09:07:16;15.80;84.00
15394;DHT22;7795;47.986;11.868;2022-10-13T09:09:44;15.90;83.80
15394;DHT22;7795;47.986;11.868;2022-10-13T09:12:10;15.90;83.50
15394;DHT22;7795;47.986;11.868;2022-10-13T09:14:38;16.00;83.40
15394;DHT22;7795;47.986;11.868;2022-10-13T09:17:16;16.10;84.10
15394;DHT22;7795;47.986;11.868;2022-10-13T09:19:43;16.20;83.10
15394;DHT22;7795;47.986;11.868;2022-10-13T09:22:21;16.30;83.10
15394;DHT22;7795;47.986;11.868;2022-10-13T09:25:18;16.40;82.80
15394;DHT22;7795;47.986;11.868;2022-10-13T09:27:47;16.40;82.70
15394;DHT22;7795;47.986;11.868;2022-10-13T09:30:26;16.50;82.70
15394;DHT22;7795;47.986;11.868;2022-10-13T09:33:04;16.60;82.40
15394;DHT22;7795;47.986;11.868;2022-10-13T09:35:31;16.70;82.50
15394;DHT22;7795;47.986;11.868;2022-10-13T09:38:03;16.70;82.40
15394;DHT22;7795;47.986;11.868;2022-10-13T09:40:30;16.80;82.40
15394;DHT22;7795;47.986;11.868;2022-10-13T09:42:57;16.90;82.70
15394;DHT22;7795;47.986;11.868;2022-10-13T09:45:25;16.90;82.40
15394;DHT22;7795;47.986;11.868;2022-10-13T09:47:53;17.00;82.20
15394;DHT22;7795;47.986;11.868;2022-10-13T09:50:23;17.10;81.90
15394;DHT22;7795;47.986;11.868;2022-10-13T09:52:49;17.20;81.70
15394;DHT22;7795;47.986;11.868;2022-10-13T09:55:31;17.30;81.70
15394;DHT22;7795;47.986;11.868;2022-10-13T09:58:03;17.30;81.30
15394;DHT22;7795;47.986;11.868;2022-10-13T10:00:31;17.40;81.30
15394;DHT22;7795;47.986;11.868;2022-10-13T10:03:01;17.40;81.20
15394;DHT22;7795;47.986;11.868;2022-10-13T10:05:38;17.50;81.00
15394;DHT22;7795;47.986;11.868;2022-10-13T10:08:12;17.60;80.80
15394;DHT22;7795;47.986;11.868;2022-10-13T10:10:40;17.60;80.70
15394;DHT22;7795;47.986;11.868;2022-10-13T10:13:09;17.60;80.70
15394;DHT22;7795;47.986;11.868;2022-10-13T10:15:42;17.70;80.50
15394;DHT22;7795;47.986;11.868;2022-10-13T10:18:15;17.80;80.30
15394;DHT22;7795;47.986;11.868;2022-10-13T10:20:55;17.80;80.20
15394;DHT22;7795;47.986;11.868;2022-10-13T10:23:32;17.90;80.00
15394;DHT22;7795;47.986;11.868;2022-10-13T10:26:07;18.00;80.00
15394;DHT22;7795;47.986;11.868;2022-10-13T10:28:55;18.00;79.80
15394;DHT22;7795;47.986;11.868;2022-10-13T10:31:37;18.00;79.20
15394;DHT22;7795;47.986;11.868;2022-10-13T10:34:23;18.10;79.30
15394;DHT22;7795;47.986;11.868;2022-10-13T10:37:00;18.20;79.30
15394;DHT22;7795;47.986;11.868;2022-10-13T10:39:34;18.20;79.20
15394;DHT22;7795;47.986;11.868;2022-10-13T10:42:06;18.20;79.20
15394;DHT22;7795;47.986;11.868;2022-10-13T10:44:39;18.30;78.90
15394;DHT22;7795;47.986;11.868;2022-10-13T10:47:15;18.40;79.00
15394;DHT22;7795;47.986;11.868;2022-10-13T10:49:44;18.50;78.60
15394;DHT22;7795;47.986;11.868;2022-10-13T10:52:15;18.50;78.60
15394;DHT22;7795;47.986;11.868;2022-10-13T10:54:47;18.60;78.20
15394;DHT22;7795;47.986;11.868;2022-10-13T10:57:20;18.60;78.00
15394;DHT22;7795;47.986;11.868;2022-10-13T10:59:56;18.70;77.60
15394;DHT22;7795;47.986;11.868;2022-10-13T11:02:43;18.80;77.40
15394;DHT22;7795;47.986;11.868;2022-10-13T11:05:14;18.90;76.90
15394;DHT22;7795;47.986;11.868;2022-10-13T11:07:57;18.90;77.50
15394;DHT22;7795;47.986;11.868;2022-10-13T11:10:24;19.00;76.60
15394;DHT22;7795;47.986;11.868;2022-10-13T11:13:17;19.00;77.20
15394;DHT22;7795;47.986;11.868;2022-10-13T11:15:44;19.10;77.10
15394;DHT22;7795;47.986;11.868;2022-10-13T11:18:54;19.20;77.00
15394;DHT22;7795;47.986;11.868;2022-10-13T11:21:20;19.20;76.00
15394;DHT22;7795;47.986;11.868;2022-10-13T11:23:47;19.30;76.90
15394;DHT22;7795;47.986;11.868;2022-10-13T11:26:41;19.30;76.60
15394;DHT22;7795;47.986;11.868;2022-10-13T11:29:18;19.40;75.80
15394;DHT22;7795;47.986;11.868;2022-10-13T11:31:53;19.50;76.00
15394;DHT22;7795;47.986;11.868;2022-10-13T11:34:27;19.50;76.10
15394;DHT22;7795;47.986;11.868;2022-10-13T11:36:57;19.60;75.30
15394;DHT22;7795;47.986;11.868;2022-10-13T11:42:55;19.70;75.00
15394;DHT22;7795;47.986;11.868;2022-10-13T11:45:40;19.70;74.90
15394;DHT22;7795;47.986;11.868;2022-10-13T11:51:23;19.70;74.50
15394;DHT22;7795;47.986;11.868;2022-10-13T11:53:58;19.70;74.80
15394;DHT22;7795;47.986;11.868;2022-10-13T11:56:33;19.80;74.60
15394;DHT22;7795;47.986;11.868;2022-10-13T11:58:59;19.80;74.50
15394;DHT22;7795;47.986;11.868;2022-10-13T12:01:26;19.80;74.80
15394;DHT22;7795;47.986;11.868;2022-10-13T12:03:52;19.80;74.80
15394;DHT22;7795;47.986;11.868;2022-10-13T12:06:25;19.90;74.80
15394;DHT22;7795;47.986;11.868;2022-10-13T12:09:00;19.90;74.10
15394;DHT22;7795;47.986;11.868;2022-10-13T12:11:28;19.90;75.20
15394;DHT22;7795;47.986;11.868;2022-10-13T12:13:54;19.90;74.30
15394;DHT22;7795;47.986;11.868;2022-10-13T12:16:21;20.00;74.50
15394;DHT22;7795;47.986;11.868;2022-10-13T12:18:48;20.00;74.20
15394;DHT22;7795;47.986;11.868;2022-10-13T12:21:16;20.00;74.10
15394;DHT22;7795;47.986;11.868;2022-10-13T12:23:45;20.00;74.10
15394;DHT22;7795;47.986;11.868;2022-10-13T12:26:14;20.00;74.20
15394;DHT22;7795;47.986;11.868;2022-10-13T12:28:48;20.00;73.90
15394;DHT22;7795;47.986;11.868;2022-10-13T12:31:18;20.00;74.60
15394;DHT22;7795;47.986;11.868;2022-10-13T12:33:53;20.00;74.10
15394;DHT22;7795;47.986;11.868;2022-10-13T12:36:21;20.00;73.80
15394;DHT22;7795;47.986;11.868;2022-10-13T12:38:49;20.00;74.00
15394;DHT22;7795;47.986;11.868;2022-10-13T12:41:18;20.00;73.90
15394;DHT22;7795;47.986;11.868;2022-10-13T12:43:44;20.10;73.90
15394;DHT22;7795;47.986;11.868;2022-10-13T12:46:10;20.10;73.80
15394;DHT22;7795;47.986;11.868;2022-10-13T12:48:36;20.00;73.70
15394;DHT22;7795;47.986;11.868;2022-10-13T12:51:14;20.10;73.70
15394;DHT22;7795;47.986;11.868;2022-10-13T12:53:41;20.10;73.30
15394;DHT22;7795;47.986;11.868;2022-10-13T12:56:17;20.10;73.60
15394;DHT22;7795;47.986;11.868;2022-10-13T12:58:46;20.10;72.80
15394;DHT22;7795;47.986;11.868;2022-10-13T13:01:31;20.10;73.40
15394;DHT22;7795;47.986;11.868;2022-10-13T13:04:00;20.20;72.80
15394;DHT22;7795;47.986;11.868;2022-10-13T13:06:35;20.10;73.30
15394;DHT22;7795;47.986;11.868;2022-10-13T13:09:20;20.20;72.90
15394;DHT22;7795;47.986;11.868;2022-10-13T13:11:47;20.20;72.90
15394;DHT22;7795;47.986;11.868;2022-10-13T13:14:32;20.20;73.30
15394;DHT22;7795;47.986;11.868;2022-10-13T13:17:05;20.20;72.80
15394;DHT22;7795;47.986;11.868;2022-10-13T13:19:31;20.20;72.90
15394;DHT22;7795;47.986;11.868;2022-10-13T13:21:59;20.20;73.10
15394;DHT22;7795;47.986;11.868;2022-10-13T13:24:24;20.20;73.00
15394;DHT22;7795;47.986;11.868;2022-10-13T13:26:50;20.20;73.00
15394;DHT22;7795;47.986;11.868;2022-10-13T13:29:16;20.20;73.10
15394;DHT22;7795;47.986;11.868;2022-10-13T13:31:42;20.30;73.20
15394;DHT22;7795;47.986;11.868;2022-10-13T13:34:07;20.30;73.00
15394;DHT22;7795;47.986;11.868;2022-10-13T13:36:33;20.30;73.00
15394;DHT22;7795;47.986;11.868;2022-10-13T13:39:00;20.30;73.00
15394;DHT22;7795;47.986;11.868;2022-10-13T13:41:26;20.30;72.90
15394;DHT22;7795;47.986;11.868;2022-10-13T13:43:55;20.30;72.90
15394;DHT22;7795;47.986;11.868;2022-10-13T13:46:23;20.30;72.80
15394;DHT22;7795;47.986;11.868;2022-10-13T13:48:50;20.20;73.40
15394;DHT22;7795;47.986;11.868;2022-10-13T13:51:16;20.20;72.80
15394;DHT22;7795;47.986;11.868;2022-10-13T13:53:42;20.20;72.90
15394;DHT22;7795;47.986;11.868;2022-10-13T13:56:10;20.20;72.90
15394;DHT22;7795;47.986;11.868;2022-10-13T13:58:37;20.20;72.80
15394;DHT22;7795;47.986;11.868;2022-10-13T14:01:03;20.20;72.90
15394;DHT22;7795;47.986;11.868;2022-10-13T14:03:28;20.20;73.00
15394;DHT22;7795;47.986;11.868;2022-10-13T14:05:54;20.20;73.00
15394;DHT22;7795;47.986;11.868;2022-10-13T14:08:20;20.20;73.00
15394;DHT22;7795;47.986;11.868;2022-10-13T14:10:46;20.20;72.90
15394;DHT22;7795;47.986;11.868;2022-10-13T14:13:13;20.20;72.90
15394;DHT22;7795;47.986;11.868;2022-10-13T14:15:38;20.20;72.80
15394;DHT22;7795;47.986;11.868;2022-10-13T14:18:05;20.20;72.90
15394;DHT22;7795;47.986;11.868;2022-10-13T14:20:30;20.20;73.00
15394;DHT22;7795;47.986;11.868;2022-10-13T14:22:56;20.20;72.90
15394;DHT22;7795;47.986;11.868;2022-10-13T14:25:22;20.20;72.90
15394;DHT22;7795;47.986;11.868;2022-10-13T14:27:48;20.30;73.00
15394;DHT22;7795;47.986;11.868;2022-10-13T14:30:15;20.20;72.90
15394;DHT22;7795;47.986;11.868;2022-10-13T14:32:41;20.20;72.80
15394;DHT22;7795;47.986;11.868;2022-10-13T14:35:07;20.20;72.90
15394;DHT22;7795;47.986;11.868;2022-10-13T14:37:33;20.20;72.80
15394;DHT22;7795;47.986;11.868;2022-10-13T14:39:59;20.20;72.80
15394;DHT22;7795;47.986;11.868;2022-10-13T14:42:25;20.20;72.90
15394;DHT22;7795;47.986;11.868;2022-10-13T14:44:50;20.20;72.90
15394;DHT22;7795;47.986;11.868;2022-10-13T14:47:17;20.20;73.00
15394;DHT22;7795;47.986;11.868;2022-10-13T14:49:43;20.10;72.90
15394;DHT22;7795;47.986;11.868;2022-10-13T14:52:09;20.10;73.00
15394;DHT22;7795;47.986;11.868;2022-10-13T14:54:34;20.10;73.00
15394;DHT22;7795;47.986;11.868;2022-10-13T14:57:00;20.10;73.00
15394;DHT22;7795;47.986;11.868;2022-10-13T14:59:29;20.10;72.90
15394;DHT22;7795;47.986;11.868;2022-10-13T15:01:55;20.10;72.90
15394;DHT22;7795;47.986;11.868;2022-10-13T15:04:22;20.00;72.90
15394;DHT22;7795;47.986;11.868;2022-10-13T15:06:48;20.00;72.90
15394;DHT22;7795;47.986;11.868;2022-10-13T15:09:14;20.00;72.90
15394;DHT22;7795;47.986;11.868;2022-10-13T15:11:39;19.90;73.00
15394;DHT22;7795;47.986;11.868;2022-10-13T15:14:05;19.90;73.20
15394;DHT22;7795;47.986;11.868;2022-10-13T15:16:32;19.90;73.30
15394;DHT22;7795;47.986;11.868;2022-10-13T15:18:58;19.90;73.40
15394;DHT22;7795;47.986;11.868;2022-10-13T15:21:26;19.90;73.30
15394;DHT22;7795;47.986;11.868;2022-10-13T15:23:51;19.80;73.30
15394;DHT22;7795;47.986;11.868;2022-10-13T15:26:18;19.80;73.30
15394;DHT22;7795;47.986;11.868;2022-10-13T15:28:46;19.80;73.40
15394;DHT22;7795;47.986;11.868;2022-10-13T15:31:13;19.70;73.50
15394;DHT22;7795;47.986;11.868;2022-10-13T15:33:41;19.70;73.50
15394;DHT22;7795;47.986;11.868;2022-10-13T15:36:07;19.70;73.60
15394;DHT22;7795;47.986;11.868;2022-10-13T15:38:34;19.70;73.60
15394;DHT22;7795;47.986;11.868;2022-10-13T15:41:01;19.60;73.60
15394;DHT22;7795;47.986;11.868;2022-10-13T15:43:27;19.70;73.80
15394;DHT22;7795;47.986;11.868;2022-10-13T15:45:55;19.60;73.80